createdAt,value
2022-08-25T00:00:17.264Z,89.95
2022-08-25T00:02:55.531Z,90.21
2022-08-25T00:05:32.092Z,90.25
2022-08-25T00:08:03.485Z,90.13
2022-08-25T00:10:32.445Z,90.87
2022-08-25T00:13:02.747Z,91.02
2022-08-25T00:15:32.363Z,90.49
2022-08-25T00:18:01.645Z,91.04
2022-08-25T00:20:31.070Z,90.25
2022-08-25T00:22:59.584Z,90.89
2022-08-25T00:25:28.303Z,89.83
2022-08-25T00:27:57.262Z,89.69
2022-08-25T00:30:27.211Z,89.56
2022-08-25T00:32:57.536Z,90.18
2022-08-25T00:35:27.477Z,90.51
2022-08-25T00:37:56.152Z,89.83
2022-08-25T00:40:26.629Z,90.89
2022-08-25T00:42:56.012Z,89.82
2022-08-25T00:45:24.892Z,91.25
2022-08-25T00:47:54.983Z,93.73
2022-08-25T00:50:30.058Z,93.85
2022-08-25T00:53:03.594Z,93.32
2022-08-25T00:55:36.944Z,94.88
2022-08-25T00:58:11.604Z,94.02
2022-08-25T01:00:43.307Z,94.81
2022-08-25T01:03:13.837Z,94.51
2022-08-25T01:05:44.200Z,94.21
2022-08-25T01:08:16.248Z,94.31
2022-08-25T01:10:46.099Z,94.34
2022-08-25T01:13:20.156Z,95.87
2022-08-25T01:15:50.333Z,94.75
2022-08-25T01:18:20.993Z,94.56
2022-08-25T01:20:53.582Z,93.73
2022-08-25T01:23:22.943Z,93.12
2022-08-25T01:26:02.869Z,93.81
2022-08-25T01:28:31.499Z,94.29
2022-08-25T01:31:00.206Z,93.29
2022-08-25T01:33:28.845Z,94.38
2022-08-25T01:35:58.757Z,95.12
2022-08-25T01:38:27.816Z,94.83
2022-08-25T01:40:56.404Z,95.47
2022-08-25T01:43:32.451Z,93.86
2022-08-25T01:46:01.008Z,94.85
2022-08-25T01:48:29.719Z,94.75
2022-08-25T01:50:59.652Z,95.35
2022-08-25T01:53:30.279Z,95.54
2022-08-25T01:56:10.106Z,95.57
2022-08-25T01:58:41.005Z,94.89
2022-08-25T02:01:12.441Z,95.01
2022-08-25T02:03:43.148Z,95.54
2022-08-25T02:06:14.104Z,94.64
2022-08-25T02:08:43.480Z,95.75
2022-08-25T02:11:13.164Z,97.32
2022-08-25T02:13:42.585Z,98.54
2022-08-25T02:16:15.770Z,97.97
2022-08-25T02:18:45.839Z,97.04
2022-08-25T02:21:16.460Z,96.82
2022-08-25T02:23:45.472Z,96.93
2022-08-25T02:26:16.661Z,97.20
2022-08-25T02:28:47.627Z,97.17
2022-08-25T02:31:17.057Z,97.62
2022-08-25T02:33:45.840Z,97.32
2022-08-25T02:36:16.022Z,97.08
2022-08-25T02:38:44.750Z,98.05
2022-08-25T02:41:15.928Z,99.14
2022-08-25T02:43:45.441Z,98.31
2022-08-25T02:46:14.140Z,99.47
2022-08-25T02:48:43.491Z,98.93
2022-08-25T02:51:12.769Z,98.92
2022-08-25T02:53:45.954Z,98.44
2022-08-25T02:56:16.134Z,98.20
2022-08-25T02:58:46.053Z,98.63
2022-08-25T03:01:15.575Z,99.53
2022-08-25T03:03:46.660Z,99.04
2022-08-25T03:06:18.153Z,99.53
2022-08-25T03:08:48.049Z,99.59
2022-08-25T03:11:17.602Z,99.86
2022-08-25T03:13:46.474Z,99.90
2022-08-25T03:16:16.855Z,100.00
2022-08-25T03:18:50.039Z,100.00
2022-08-25T03:21:19.333Z,100.00
2022-08-25T03:23:49.384Z,99.90
2022-08-25T03:26:35.552Z,100.00
2022-08-25T03:29:05.456Z,100.00
2022-08-25T03:31:35.550Z,100.00
2022-08-25T03:34:04.345Z,100.00
2022-08-25T03:36:32.832Z,100.00
2022-08-25T03:39:02.750Z,100.00
2022-08-25T03:41:32.655Z,100.00
2022-08-25T03:44:03.358Z,100.00
2022-08-25T03:46:35.266Z,100.00
2022-08-25T03:49:05.602Z,100.00
2022-08-25T03:51:37.200Z,100.00
2022-08-25T03:54:08.473Z,100.00
2022-08-25T03:56:37.941Z,100.00
2022-08-25T03:59:09.104Z,100.00
2022-08-25T04:01:38.431Z,100.00
2022-08-25T04:04:08.344Z,100.00
2022-08-25T04:06:37.011Z,100.00
2022-08-25T04:09:06.868Z,100.00
2022-08-25T04:11:35.542Z,100.00
2022-08-25T04:14:05.795Z,100.00
2022-08-25T04:16:36.146Z,100.00
2022-08-25T04:19:09.209Z,100.00
2022-08-25T04:21:38.827Z,100.00
2022-08-25T04:24:11.558Z,100.00
2022-08-25T04:26:43.067Z,100.00
2022-08-25T04:29:13.162Z,100.00
2022-08-25T04:31:43.788Z,100.00
2022-08-25T04:34:29.447Z,100.00
2022-08-25T04:36:58.937Z,100.00
2022-08-25T04:39:28.881Z,100.00
2022-08-25T04:41:57.432Z,100.00
2022-08-25T04:44:26.001Z,100.00
2022-08-25T04:46:54.503Z,100.00
2022-08-25T04:49:23.329Z,100.00
2022-08-25T04:51:51.780Z,100.00
2022-08-25T04:54:22.042Z,100.00
2022-08-25T04:56:54.590Z,100.00
2022-08-25T04:59:30.621Z,100.00
2022-08-25T05:02:03.006Z,100.00
2022-08-25T05:04:33.580Z,100.00
2022-08-25T05:07:03.315Z,100.00
2022-08-25T05:09:32.778Z,100.00
2022-08-25T05:12:03.841Z,100.00
2022-08-25T05:14:33.273Z,100.00
2022-08-25T05:17:02.781Z,100.00
2022-08-25T05:19:31.495Z,100.00
2022-08-25T05:21:59.981Z,100.00
2022-08-25T05:24:29.564Z,100.00
2022-08-25T05:26:58.236Z,100.00
2022-08-25T05:29:28.192Z,100.00
2022-08-25T05:31:56.759Z,99.77
2022-08-25T05:34:25.706Z,100.00
2022-08-25T05:36:54.539Z,100.00
2022-08-25T05:39:23.105Z,99.66
2022-08-25T05:41:55.583Z,99.48
2022-08-25T05:44:24.428Z,98.81
2022-08-25T05:46:54.228Z,99.54
2022-08-25T05:49:22.692Z,99.71
2022-08-25T05:51:51.190Z,99.71
2022-08-25T05:54:19.776Z,99.43
2022-08-25T05:56:48.314Z,99.10
2022-08-25T05:59:16.853Z,97.78
2022-08-25T06:02:03.056Z,97.34
2022-08-25T06:04:33.543Z,96.87
2022-08-25T06:07:02.075Z,97.74
2022-08-25T06:09:31.026Z,97.47
2022-08-25T06:11:59.564Z,96.38
2022-08-25T06:14:28.045Z,91.23
2022-08-25T06:16:56.929Z,84.33
2022-08-25T06:19:25.589Z,78.62
2022-08-25T06:21:59.260Z,76.17
2022-08-25T06:24:29.330Z,70.46
2022-08-25T06:26:58.150Z,66.02
2022-08-25T06:29:26.935Z,65.02
2022-08-25T06:31:55.518Z,58.98
2022-08-25T06:34:24.494Z,59.69
2022-08-25T06:36:53.791Z,55.44
2022-08-25T06:39:24.054Z,55.56
2022-08-25T06:41:54.323Z,51.68
2022-08-25T06:44:24.464Z,49.12
2022-08-25T06:46:52.979Z,47.39
2022-08-25T06:49:22.119Z,47.84
2022-08-25T06:51:50.744Z,45.21
2022-08-25T06:54:19.260Z,44.17
2022-08-25T06:56:49.596Z,44.63
2022-08-25T06:59:18.799Z,42.80
2022-08-25T07:01:49.618Z,42.40
2022-08-25T07:04:18.736Z,41.13
2022-08-25T07:06:48.117Z,40.02
2022-08-25T07:09:16.600Z,40.11
2022-08-25T07:11:46.547Z,40.38
2022-08-25T07:14:18.443Z,38.94
2022-08-25T07:16:49.625Z,36.71
2022-08-25T07:19:21.414Z,35.54
2022-08-25T07:21:52.264Z,34.74
2022-08-25T07:24:21.303Z,33.94
2022-08-25T07:26:50.472Z,32.94
2022-08-25T07:29:32.092Z,32.55
2022-08-25T07:32:02.020Z,32.22
2022-08-25T07:34:52.385Z,31.44
2022-08-25T07:37:47.552Z,30.33
2022-08-25T07:40:16.019Z,31.06
2022-08-25T07:42:44.811Z,31.71
2022-08-25T07:45:18.386Z,31.94
2022-08-25T07:47:53.676Z,30.03
2022-08-25T07:50:22.528Z,30.24
2022-08-25T07:52:55.012Z,29.50
2022-08-25T07:55:26.060Z,29.62
2022-08-25T08:02:18.677Z,27.38
2022-08-25T08:04:49.809Z,27.91
2022-08-25T08:07:19.469Z,27.29
2022-08-25T08:09:55.848Z,27.23
2022-08-25T08:12:25.261Z,27.04
2022-08-25T08:14:55.003Z,28.61
2022-08-25T08:17:24.896Z,28.51
2022-08-25T08:19:53.518Z,27.96
2022-08-25T08:22:22.295Z,26.91
2022-08-25T08:24:54.966Z,25.52
2022-08-25T08:27:25.520Z,25.20
2022-08-25T08:29:54.701Z,25.07
2022-08-25T08:32:31.504Z,24.47
2022-08-25T08:35:13.249Z,24.29
2022-08-25T08:37:42.528Z,23.90
2022-08-25T08:40:13.827Z,22.71
2022-08-25T08:42:58.873Z,24.02
2022-08-25T08:45:32.160Z,23.55
2022-08-25T08:48:47.583Z,22.30
2022-08-25T08:51:23.047Z,21.80
2022-08-25T08:53:57.103Z,21.36
2022-08-25T08:56:30.723Z,21.48
2022-08-25T08:59:06.374Z,21.78
2022-08-25T09:01:41.131Z,21.52
2022-08-25T09:04:18.394Z,21.15
2022-08-25T09:06:50.787Z,21.24
2022-08-25T09:09:27.652Z,21.25
2022-08-25T09:12:05.909Z,20.45
2022-08-25T09:14:53.825Z,20.59
2022-08-25T09:17:54.801Z,20.65
2022-08-25T09:20:55.870Z,21.26
2022-08-25T09:23:34.802Z,20.02
2022-08-25T09:26:22.374Z,20.67
2022-08-25T09:28:56.641Z,18.67
2022-08-25T09:31:29.731Z,18.31
2022-08-25T09:34:01.272Z,19.39
2022-08-25T09:36:37.653Z,19.02
2022-08-25T09:39:09.944Z,18.87
2022-08-25T09:41:48.230Z,18.75
2022-08-25T09:44:23.680Z,18.63
2022-08-25T09:47:06.029Z,18.74
2022-08-25T09:49:40.073Z,17.62
2022-08-25T09:52:33.388Z,18.04
2022-08-25T09:55:26.733Z,18.75
2022-08-25T09:57:56.894Z,19.21
2022-08-25T10:00:29.678Z,19.77
2022-08-25T10:03:07.833Z,21.31
2022-08-25T10:05:42.662Z,21.29
2022-08-25T10:08:25.879Z,20.36
2022-08-25T10:10:58.120Z,21.27
2022-08-25T10:13:36.398Z,21.02
2022-08-25T10:16:20.373Z,21.31
2022-08-25T10:19:08.710Z,21.27
2022-08-25T10:21:39.212Z,19.34
2022-08-25T10:24:11.287Z,18.71
2022-08-25T10:26:55.518Z,19.43
2022-08-25T10:29:37.297Z,19.05
2022-08-25T10:32:16.874Z,19.97
2022-08-25T10:34:51.402Z,20.50
2022-08-25T10:37:33.637Z,20.89
2022-08-25T10:40:13.755Z,22.34
2022-08-25T10:42:59.167Z,22.05
2022-08-25T10:45:43.971Z,21.79
2022-08-25T10:48:26.699Z,21.93
2022-08-25T10:51:00.890Z,22.58
2022-08-25T10:53:35.907Z,20.33
2022-08-25T10:56:13.191Z,19.95
2022-08-25T10:59:11.122Z,18.78
2022-08-25T11:01:53.716Z,17.29
2022-08-25T11:04:27.364Z,17.34
2022-08-25T11:07:00.441Z,17.58
2022-08-25T11:09:36.021Z,16.69
2022-08-25T11:12:12.450Z,16.14
2022-08-25T11:14:47.346Z,16.31
2022-08-25T11:17:21.117Z,16.69
2022-08-25T11:19:53.846Z,16.03
2022-08-25T11:22:28.117Z,15.85
2022-08-25T11:25:06.634Z,16.16
2022-08-25T11:27:44.301Z,16.79
2022-08-25T11:30:15.223Z,16.09
2022-08-25T11:32:47.934Z,16.38
2022-08-25T11:35:19.533Z,15.84
2022-08-25T11:38:09.384Z,16.05
2022-08-25T11:40:59.732Z,15.59
2022-08-25T11:43:45.313Z,15.82
2022-08-25T11:46:28.365Z,16.07
2022-08-25T11:49:09.019Z,16.40
2022-08-25T11:51:44.173Z,15.64
2022-08-25T11:54:22.170Z,16.30
2022-08-25T11:56:58.641Z,16.05
2022-08-25T12:00:05.419Z,16.39
2022-08-25T12:02:39.617Z,16.62
2022-08-25T12:05:12.193Z,16.50
2022-08-25T12:08:21.330Z,16.50
2022-08-25T12:11:10.638Z,16.20
2022-08-25T12:13:45.993Z,16.52
2022-08-25T12:16:41.010Z,16.12
2022-08-25T12:19:50.498Z,16.73
2022-08-25T12:22:41.336Z,17.23
2022-08-25T12:25:20.940Z,16.22
2022-08-25T12:28:00.530Z,16.08
2022-08-25T12:30:40.139Z,15.44
2022-08-25T12:33:14.730Z,15.38
2022-08-25T12:35:57.818Z,16.04
2022-08-25T12:38:31.705Z,15.24
2022-08-25T12:41:04.674Z,15.86
2022-08-25T12:43:37.599Z,15.54
2022-08-25T12:46:43.402Z,14.83
2022-08-25T12:49:31.565Z,15.41
2022-08-25T12:52:06.391Z,15.72
2022-08-25T12:54:49.049Z,15.51
2022-08-25T12:57:31.631Z,15.32
2022-08-25T13:00:06.191Z,15.25
2022-08-25T13:02:53.414Z,15.45
2022-08-25T13:05:43.851Z,16.10
2022-08-25T13:08:46.569Z,15.88
2022-08-25T13:11:20.425Z,16.00
2022-08-25T13:13:56.050Z,15.96
2022-08-25T13:16:29.549Z,15.95
2022-08-25T13:19:01.667Z,16.22
2022-08-25T13:21:35.183Z,16.38
2022-08-25T13:24:12.974Z,15.92
2022-08-25T13:26:48.473Z,16.22
2022-08-25T13:29:22.228Z,16.70
2022-08-25T13:31:57.065Z,16.62
2022-08-25T13:34:34.375Z,16.46
2022-08-25T13:37:26.472Z,16.43
2022-08-25T13:40:17.668Z,16.33
2022-08-25T13:42:55.615Z,18.53
2022-08-25T13:45:27.720Z,18.17
2022-08-25T13:47:58.490Z,17.86
2022-08-25T13:50:34.345Z,18.24
2022-08-25T13:53:11.246Z,17.55
2022-08-25T13:55:52.270Z,17.85
2022-08-25T13:58:24.210Z,18.28
2022-08-25T14:01:42.117Z,19.57
2022-08-25T14:04:20.030Z,20.47
2022-08-25T14:06:49.079Z,21.79
2022-08-25T14:09:27.875Z,22.19
2022-08-25T14:11:59.305Z,22.31
2022-08-25T14:14:34.895Z,22.14
2022-08-25T14:17:21.605Z,22.38
2022-08-25T14:19:56.705Z,22.68
2022-08-25T14:22:25.388Z,23.28
2022-08-25T14:24:55.693Z,23.26
2022-08-25T14:27:26.085Z,23.83
2022-08-25T14:29:55.737Z,23.37
2022-08-25T14:32:24.241Z,23.25
2022-08-25T14:34:54.753Z,23.51
2022-08-25T14:37:25.391Z,23.29
2022-08-25T14:39:54.715Z,23.77
2022-08-25T14:42:26.406Z,24.22
2022-08-25T14:44:56.179Z,23.79
2022-08-25T14:47:25.379Z,24.71
2022-08-25T14:49:54.005Z,24.62
2022-08-25T14:52:27.934Z,24.88
2022-08-25T14:54:57.133Z,24.68
2022-08-25T14:57:27.862Z,25.16
2022-08-25T14:59:57.975Z,24.43
2022-08-25T15:02:29.745Z,25.26
2022-08-25T15:05:05.750Z,24.43
2022-08-25T15:07:52.499Z,25.67
2022-08-25T15:10:21.651Z,25.57
2022-08-25T15:12:53.887Z,26.11
2022-08-25T15:15:26.284Z,25.75
2022-08-25T15:17:58.140Z,25.73
2022-08-25T15:20:29.199Z,25.41
2022-08-25T15:22:59.236Z,26.01
2022-08-25T15:25:27.872Z,25.78
2022-08-25T15:27:57.944Z,25.73
2022-08-25T15:30:30.974Z,27.22
2022-08-25T15:33:03.691Z,26.15
2022-08-25T15:35:35.532Z,26.06
2022-08-25T15:38:05.139Z,26.35
2022-08-25T15:40:35.213Z,26.39
2022-08-25T15:43:05.222Z,25.81
2022-08-25T15:45:36.868Z,25.73
2022-08-25T15:48:06.919Z,27.87
2022-08-25T15:50:38.710Z,26.30
2022-08-25T15:53:10.482Z,26.00
2022-08-25T15:55:40.414Z,27.57
2022-08-25T15:58:10.314Z,27.61
2022-08-25T16:00:39.398Z,28.08
2022-08-25T16:03:08.575Z,26.87
2022-08-25T16:05:37.830Z,26.71
2022-08-25T16:08:19.042Z,29.34
2022-08-25T16:10:48.145Z,28.68
2022-08-25T16:13:19.876Z,29.25
2022-08-25T16:15:53.139Z,28.25
2022-08-25T16:18:23.481Z,28.13
2022-08-25T16:20:52.192Z,28.17
2022-08-25T16:23:21.183Z,28.66
2022-08-25T16:25:50.525Z,29.21
2022-08-25T16:28:24.514Z,28.57
2022-08-25T16:30:53.576Z,29.11
2022-08-25T16:33:22.248Z,28.83
2022-08-25T16:35:50.824Z,29.39
2022-08-25T16:38:19.732Z,28.70
2022-08-25T16:40:48.429Z,29.06
2022-08-25T16:43:17.646Z,28.89
2022-08-25T16:45:47.641Z,29.39
2022-08-25T16:48:16.182Z,29.96
2022-08-25T16:50:44.852Z,30.34
2022-08-25T16:53:31.877Z,30.20
2022-08-25T16:56:07.517Z,30.56
2022-08-25T16:58:37.630Z,30.95
2022-08-25T17:01:12.773Z,31.03
2022-08-25T17:03:44.093Z,31.73
2022-08-25T17:06:14.138Z,32.22
2022-08-25T17:08:44.191Z,31.82
2022-08-25T17:11:15.062Z,31.85
2022-08-25T17:13:46.885Z,31.89
2022-08-25T17:16:21.039Z,33.07
2022-08-25T17:18:49.990Z,32.19
2022-08-25T17:21:24.357Z,31.98
2022-08-25T17:23:54.274Z,32.50
2022-08-25T17:26:27.902Z,32.11
2022-08-25T17:28:59.285Z,33.30
2022-08-25T17:31:30.940Z,33.50
2022-08-25T17:34:00.233Z,33.44
2022-08-25T17:36:29.378Z,34.78
2022-08-25T17:38:58.182Z,35.79
2022-08-25T17:41:26.982Z,34.59
2022-08-25T17:43:55.470Z,36.20
2022-08-25T17:46:24.848Z,36.39
2022-08-25T17:48:55.179Z,37.46
2022-08-25T17:51:24.365Z,36.77
2022-08-25T17:53:53.838Z,37.85
2022-08-25T17:56:27.435Z,37.57
2022-08-25T17:58:57.764Z,37.78
2022-08-25T18:01:29.506Z,38.89
2022-08-25T18:04:00.759Z,38.72
2022-08-25T18:06:30.986Z,39.83
2022-08-25T18:09:01.434Z,40.08
2022-08-25T18:11:32.279Z,41.06
2022-08-25T18:14:00.830Z,41.55
2022-08-25T18:16:29.981Z,42.35
2022-08-25T18:18:59.905Z,43.83
2022-08-25T18:21:30.938Z,44.13
2022-08-25T18:24:00.080Z,44.44
2022-08-25T18:26:28.574Z,45.47
2022-08-25T18:28:57.183Z,46.05
2022-08-25T18:31:25.704Z,47.22
2022-08-25T18:33:54.293Z,48.15
2022-08-25T18:36:24.372Z,48.72
2022-08-25T18:39:11.764Z,49.26
2022-08-25T18:41:45.220Z,50.39
2022-08-25T18:44:15.594Z,51.36
2022-08-25T18:46:45.277Z,51.72
2022-08-25T18:49:15.880Z,51.79
2022-08-25T18:51:46.875Z,53.42
2022-08-25T18:54:22.776Z,53.86
2022-08-25T18:56:53.110Z,53.73
2022-08-25T18:59:23.693Z,53.98
2022-08-25T19:01:54.343Z,53.60
2022-08-25T19:04:31.393Z,54.31
2022-08-25T19:07:03.020Z,53.95
2022-08-25T19:09:32.972Z,54.60
2022-08-25T19:12:02.122Z,54.22
2022-08-25T19:14:30.881Z,54.33
2022-08-25T19:16:59.535Z,54.26
2022-08-25T19:19:29.758Z,55.47
2022-08-25T19:21:59.225Z,55.71
2022-08-25T19:24:29.742Z,58.93
2022-08-25T19:27:02.198Z,58.78
2022-08-25T19:29:31.413Z,59.35
2022-08-25T19:32:02.460Z,59.55
2022-08-25T19:34:35.354Z,59.36
2022-08-25T19:37:06.358Z,60.24
2022-08-25T19:39:43.898Z,61.24
2022-08-25T19:42:34.868Z,61.23
2022-08-25T19:45:09.430Z,61.15
2022-08-25T19:47:38.519Z,61.46
2022-08-25T19:50:09.418Z,61.24
2022-08-25T19:52:39.821Z,62.53
2022-08-25T19:55:10.108Z,62.79
2022-08-25T19:57:42.669Z,63.36
2022-08-25T20:00:15.852Z,64.65
2022-08-25T20:03:42.953Z,64.67
2022-08-25T20:06:11.497Z,64.70
2022-08-25T20:08:44.944Z,65.77
2022-08-25T20:11:14.933Z,65.49
2022-08-25T20:13:44.001Z,65.14
2022-08-25T20:16:12.624Z,66.16
2022-08-25T20:18:42.583Z,66.25
2022-08-25T20:21:11.801Z,65.96
2022-08-25T20:23:57.993Z,66.81
2022-08-25T20:26:29.123Z,66.64
2022-08-25T20:28:58.321Z,67.11
2022-08-25T20:31:26.887Z,67.27
2022-08-25T20:34:00.309Z,67.54
2022-08-25T20:36:35.253Z,68.76
2022-08-25T20:39:05.097Z,68.03
2022-08-25T20:41:36.172Z,68.28
2022-08-25T20:44:05.247Z,68.82
2022-08-25T20:46:34.810Z,68.74
2022-08-25T20:49:07.343Z,68.14
2022-08-25T20:51:36.318Z,69.35
2022-08-25T20:54:06.080Z,69.76
2022-08-25T20:56:36.121Z,69.89
2022-08-25T20:59:05.699Z,70.44
2022-08-25T21:01:40.316Z,71.04
2022-08-25T21:04:14.320Z,71.61
2022-08-25T21:06:43.683Z,70.94
2022-08-25T21:09:16.053Z,71.24
2022-08-25T21:11:46.660Z,71.41
2022-08-25T21:14:15.988Z,70.88
2022-08-25T21:16:47.067Z,69.94
2022-08-25T21:19:16.806Z,65.88
2022-08-25T21:22:00.055Z,61.35
2022-08-25T21:24:29.978Z,61.60
2022-08-25T21:27:00.692Z,62.55
2022-08-25T21:29:29.984Z,63.02
2022-08-25T21:31:59.667Z,65.11
2022-08-25T21:34:29.378Z,65.07
2022-08-25T21:36:59.238Z,66.70
2022-08-25T21:39:31.950Z,68.37
2022-08-25T21:42:03.353Z,68.88
2022-08-25T21:44:31.900Z,70.20
2022-08-25T21:47:01.228Z,71.80
2022-08-25T21:49:29.946Z,72.42
2022-08-25T21:52:06.369Z,74.06
2022-08-25T21:54:38.680Z,75.26
2022-08-25T21:57:09.312Z,76.42
2022-08-25T21:59:41.287Z,77.66
2022-08-25T22:02:19.198Z,78.78
2022-08-25T22:04:53.399Z,79.94
2022-08-25T22:07:24.725Z,81.46
2022-08-25T22:09:54.934Z,83.03
2022-08-25T22:12:25.088Z,83.65
2022-08-25T22:14:53.835Z,84.81
2022-08-25T22:17:24.251Z,85.42
2022-08-25T22:19:54.134Z,86.58
2022-08-25T22:22:23.001Z,87.76
2022-08-25T22:24:53.009Z,88.81
2022-08-25T22:27:23.459Z,90.09
2022-08-25T22:29:53.638Z,90.71
2022-08-25T22:32:22.163Z,91.41
2022-08-25T22:34:51.015Z,92.84
2022-08-25T22:37:19.693Z,94.77
2022-08-25T22:39:48.735Z,96.00
2022-08-25T22:42:18.367Z,97.78
2022-08-25T22:44:46.840Z,98.35
2022-08-25T22:47:16.642Z,100.00
2022-08-25T22:49:45.216Z,100.00
2022-08-25T22:52:15.369Z,100.00
2022-08-25T22:54:44.154Z,100.00
2022-08-25T22:57:12.995Z,100.00
2022-08-25T22:59:41.464Z,100.00
2022-08-25T23:02:09.924Z,100.00
2022-08-25T23:04:41.091Z,100.00
2022-08-25T23:07:11.297Z,100.00
2022-08-25T23:09:40.077Z,100.00
2022-08-25T23:12:09.257Z,100.00
2022-08-25T23:14:42.267Z,100.00
2022-08-25T23:17:12.932Z,100.00
2022-08-25T23:19:43.478Z,100.00
2022-08-25T23:22:12.519Z,100.00
2022-08-25T23:24:43.033Z,100.00
2022-08-25T23:27:15.669Z,100.00
2022-08-25T23:29:47.230Z,100.00
2022-08-25T23:32:17.071Z,100.00
2022-08-25T23:34:48.275Z,100.00
2022-08-25T23:37:18.358Z,100.00
2022-08-25T23:39:49.978Z,100.00
2022-08-25T23:42:20.401Z,100.00
2022-08-25T23:44:49.725Z,100.00
2022-08-25T23:47:19.245Z,100.00
2022-08-25T23:49:49.341Z,100.00
2022-08-25T23:52:18.304Z,100.00
2022-08-25T23:54:47.174Z,100.00
2022-08-25T23:57:15.939Z,100.00
2022-08-25T23:59:47.368Z,100.00
